Weather at Castaway Cay (Gorda Cay) Airstrip [CLOSED]

Public forecast

Using degrees Celsius for public forecast. Weather courtesy of forecast.io.

Closest aviation weather report (METAR) to Castaway Cay (Gorda Cay) Airstrip

Closest report is Lynden Pindling International Airport, 63.3 nm (117.2 km) S.

2024/05/26 21:00 (retrieved 44 minutes ago)

MYNN 262100Z 20009KT 170V230 9999 FEW025 SCT035 30/24 A2997

Closest aviation forecast (TAF) to Castaway Cay (Gorda Cay) Airstrip

Closest forecast is Lynden Pindling International Airport, 63.3 nm (117.2 km) S.

2024/05/26 18:18 (retrieved 3 hours ago)

TAF MYNN 261709Z 2618/2718 22008KT 9999 VCSH FEW018CB SCT025 PROB30 TEMPO 2700/2704 15010KT 8000 SHRA SCT016CB BKN045 BECMG 2709/2711 19010KT 9999 SCT020